Time;durP1;ratioP1;P1;durP2;ratioP2;P2;SDS_P1;SDS_P2;PMS_P1;PMS_P2;Temp;Humidity;BMP_temperature;BMP_pressure;BME280_temperature;BME280_humidity;BME280_pressure;Samples;Min_cycle;Max_cycle;Signal;HPM_P1;HPM_P2
2023/07/05 00:00:47;;;;;;;1.53;1.20;;;20.80;99.90;;;21.36;nan;100062.25;4988251;28;20614;-66
2023/07/05 00:03:14;;;;;;;4.60;1.43;;;20.80;99.90;;;21.45;nan;100066.41;4986621;28;20642;-66
2023/07/05 00:05:41;;;;;;;0.93;0.90;;;20.90;99.90;;;21.48;nan;100067.84;4990141;28;20598;-68
2023/07/05 00:08:08;;;;;;;1.97;1.07;;;20.90;99.90;;;21.52;nan;100061.97;4988454;28;21307;-66
2023/07/05 00:10:36;;;;;;;1.47;1.27;;;21.00;99.90;;;21.59;nan;100073.44;4989122;28;20666;-64
2023/07/05 00:13:03;;;;;;;4.23;1.17;;;21.00;99.90;;;21.62;nan;100088.97;4988430;28;20656;-65
2023/07/05 00:15:31;;;;;;;1.03;0.93;;;21.10;99.90;;;21.59;nan;100107.16;4989274;28;21161;-66
2023/07/05 00:17:58;;;;;;;5.30;1.57;;;21.10;99.90;;;21.56;nan;100110.16;4986663;28;20681;-69
2023/07/05 00:20:26;;;;;;;1.07;1.00;;;21.10;99.90;;;21.50;nan;100071.97;4990019;28;20606;-65
2023/07/05 00:22:54;;;;;;;0.63;0.63;;;21.00;99.90;;;21.42;nan;100031.47;4987843;28;20634;-65
2023/07/05 00:25:21;;;;;;;1.47;0.90;;;20.90;99.90;;;21.29;nan;100032.22;4989537;28;20610;-67
2023/07/05 00:27:48;;;;;;;3.63;0.90;;;20.90;99.90;;;21.18;nan;100023.94;4989175;28;21221;-65
2023/07/05 00:30:16;;;;;;;1.10;0.97;;;20.80;99.90;;;21.05;nan;100037.94;4987271;28;20666;-66
2023/07/05 00:32:43;;;;;;;0.70;0.70;;;20.60;99.90;;;20.89;nan;100052.25;4987996;28;20692;-66
2023/07/05 00:35:10;;;;;;;0.87;0.87;;;20.50;99.90;;;20.80;nan;100039.31;4989071;28;21245;-67
2023/07/05 00:37:37;;;;;;;1.50;0.93;;;20.40;99.90;;;20.67;nan;100024.13;4988139;28;20666;-67
2023/07/05 00:40:06;;;;;;;0.80;0.80;;;20.20;99.90;;;20.63;nan;100033.47;4972111;28;21186;-67
2023/07/05 00:42:33;;;;;;;1.20;1.20;;;20.20;99.90;;;20.63;nan;100114.81;4988146;28;21018;-67
2023/07/05 00:45:12;;;;;;;1.10;1.00;;;20.10;99.90;;;20.64;nan;100113.78;4987280;28;21145;-69
2023/07/05 00:47:42;;;;;;;0.50;0.50;;;20.20;99.90;;;20.62;nan;100052.19;4993768;28;21271;-65
2023/07/05 00:50:38;;;;;;;1.43;1.33;;;20.20;99.90;;;20.47;nan;100024.91;4982306;28;21252;-65
2023/07/05 00:53:06;;;;;;;0.70;0.70;;;20.10;99.90;;;20.34;nan;100022.13;4978013;28;21213;-68
2023/07/05 00:55:33;;;;;;;2.50;0.90;;;19.90;99.90;;;20.16;nan;100008.44;4992873;28;20622;-68
2023/07/05 00:58:03;;;;;;;0.83;0.83;;;19.80;99.90;;;20.01;nan;100006.66;4998578;28;20661;-67
2023/07/05 01:00:31;;;;;;;1.27;0.93;;;19.60;99.90;;;19.91;nan;99995.53;4979218;28;20630;-65
2023/07/05 01:03:03;;;;;;;7.17;1.27;;;19.50;99.90;;;19.87;nan;99988.97;4981885;28;20657;-67
2023/07/05 01:05:30;;;;;;;4.47;1.17;;;19.40;99.90;;;19.86;nan;99995.28;4990575;28;20610;-66
2023/07/05 01:07:57;;;;;;;0.70;0.70;;;19.40;99.90;;;19.85;nan;99998.09;4970313;28;20666;-66
2023/07/05 01:10:26;;;;;;;1.10;1.00;;;19.40;99.90;;;19.87;nan;99999.56;4972857;28;20666;-66
2023/07/05 01:13:11;;;;;;;1.30;0.90;;;19.40;99.90;;;19.87;nan;100001.38;4982155;28;20634;-67
2023/07/05 01:15:50;;;;;;;1.00;1.00;;;19.40;99.90;;;19.89;nan;100007.34;4984111;28;20997;-66
2023/07/05 01:18:42;;;;;;;1.10;1.00;;;19.40;99.90;;;19.86;nan;100013.81;4979914;28;20708;-66
2023/07/05 01:21:43;;;;;;;1.80;0.93;;;19.40;99.90;;;19.77;nan;100006.97;4991898;28;20629;-66
2023/07/05 01:24:34;;;;;;;0.90;0.90;;;19.30;99.90;;;19.77;nan;100011.44;4982168;28;20633;-66
2023/07/05 01:27:27;;;;;;;0.80;0.80;;;19.30;99.90;;;19.75;nan;100013.44;4992950;28;20661;-69
2023/07/05 01:30:31;;;;;;;1.10;1.10;;;19.30;99.90;;;19.72;nan;100008.53;4993318;28;20664;-68
2023/07/05 01:33:32;;;;;;;1.73;0.77;;;19.30;99.90;;;19.66;nan;100025.13;4993467;28;20641;-66
2023/07/05 01:35:59;;;;;;;0.97;0.80;;;19.20;99.90;;;19.57;nan;100019.09;4958631;28;21029;-68
2023/07/05 01:38:26;;;;;;;1.00;1.00;;;19.10;99.90;;;19.54;nan;100016.84;4990002;28;20688;-66
2023/07/05 01:41:01;;;;;;;9.63;0.90;;;19.10;99.90;;;19.54;nan;100011.53;4992748;28;20606;-66
2023/07/05 01:43:30;;;;;;;0.80;0.70;;;19.10;99.90;;;19.55;nan;100009.72;4990304;28;20617;-67
2023/07/05 01:46:10;;;;;;;2.00;1.10;;;19.10;99.90;;;19.51;nan;100006.59;4989444;28;20717;-69
2023/07/05 01:49:04;;;;;;;0.80;0.80;;;19.10;99.90;;;19.50;nan;100012.91;4991539;28;20634;-65
2023/07/05 01:51:58;;;;;;;0.77;0.77;;;19.00;99.90;;;19.50;nan;100007.63;4990466;28;20658;-66
2023/07/05 01:55:03;;;;;;;0.80;0.80;;;19.10;99.90;;;19.54;nan;100008.91;4987911;28;20630;-66
2023/07/05 01:58:03;;;;;;;1.10;1.10;;;19.10;99.90;;;19.47;nan;100010.63;4972913;28;20689;-65
2023/07/05 02:00:31;;;;;;;0.80;0.80;;;19.00;99.90;;;19.46;nan;100018.75;4955924;28;20650;-66
2023/07/05 02:03:07;;;;;;;0.80;0.80;;;19.00;99.90;;;19.39;nan;100013.34;4988430;28;21255;-66
2023/07/05 02:05:37;;;;;;;0.57;0.57;;;19.00;99.90;;;19.39;nan;100020.47;4974412;28;20629;-66
2023/07/05 02:08:05;;;;;;;0.70;0.70;;;18.90;99.90;;;19.38;nan;100014.34;4989808;28;20669;-67
2023/07/05 02:10:33;;;;;;;0.97;0.90;;;19.00;99.90;;;19.40;nan;100008.91;4991137;28;20654;-65
2023/07/05 02:13:06;;;;;;;0.90;0.90;;;19.00;99.90;;;19.34;nan;100018.34;4990075;28;20639;-65
2023/07/05 02:15:35;;;;;;;1.60;0.90;;;18.90;99.90;;;19.36;nan;100012.91;4983950;28;20634;-66
2023/07/05 02:18:02;;;;;;;1.63;0.80;;;18.90;99.90;;;19.36;nan;100016.34;4985116;28;20662;-67
2023/07/05 02:20:30;;;;;;;1.30;1.00;;;18.90;99.90;;;19.36;nan;100008.41;4991187;28;20656;-66
2023/07/05 02:22:57;;;;;;;8.00;1.20;;;18.90;99.90;;;19.38;nan;100017.00;4991127;28;20639;-68
2023/07/05 02:25:27;;;;;;;1.23;1.00;;;19.00;99.90;;;19.40;nan;100022.13;4999679;28;20621;-69
2023/07/05 02:27:54;;;;;;;0.87;0.87;;;19.00;99.90;;;19.40;nan;100012.34;4973031;28;20677;-66
2023/07/05 02:30:22;;;;;;;0.90;0.90;;;19.00;99.90;;;19.40;nan;99998.31;4990661;28;20678;-68
2023/07/05 02:32:49;;;;;;;1.17;0.90;;;19.00;99.90;;;19.37;nan;100007.44;4980969;28;21011;-66
2023/07/05 02:35:16;;;;;;;0.77;0.77;;;18.90;99.90;;;19.38;nan;100001.13;4988507;28;20630;-66
2023/07/05 02:37:43;;;;;;;1.03;1.00;;;19.00;99.90;;;19.37;nan;99996.84;4995417;28;20673;-66
2023/07/05 02:40:11;;;;;;;2.37;1.00;;;18.90;99.90;;;19.36;nan;99994.41;5001602;28;20645;-65
2023/07/05 02:42:38;;;;;;;0.80;0.80;;;18.90;99.90;;;19.34;nan;99991.91;4995497;28;20628;-66
2023/07/05 02:45:05;;;;;;;0.90;0.90;;;18.90;99.90;;;19.34;nan;99986.63;5002645;28;20654;-66
2023/07/05 02:47:33;;;;;;;1.30;1.00;;;18.90;99.90;;;19.31;nan;99986.97;4990380;28;20670;-69
2023/07/05 02:50:00;;;;;;;1.13;1.13;;;18.90;99.90;;;19.30;nan;99975.56;4990720;28;20618;-66
2023/07/05 02:52:27;;;;;;;1.60;1.50;;;18.90;99.90;;;19.31;nan;99979.03;4972355;28;20632;-66
2023/07/05 02:54:54;;;;;;;1.00;1.00;;;18.90;99.90;;;19.29;nan;99978.41;4989937;28;20642;-67
2023/07/05 02:57:21;;;;;;;1.60;1.07;;;18.90;99.90;;;19.28;nan;99977.56;4993489;28;20666;-68
2023/07/05 02:59:48;;;;;;;0.80;0.80;;;18.90;99.90;;;19.24;nan;99971.00;4993110;28;20638;-65
2023/07/05 03:02:15;;;;;;;2.03;0.93;;;18.80;99.90;;;19.28;nan;99968.81;4990425;28;20602;-69
2023/07/05 03:04:42;;;;;;;0.67;0.67;;;18.90;99.90;;;19.23;nan;99969.34;4992421;28;21181;-65
2023/07/05 03:07:09;;;;;;;0.87;0.87;;;18.80;99.90;;;19.20;nan;99963.59;4991025;28;20668;-69
2023/07/05 03:09:36;;;;;;;0.80;0.80;;;18.80;99.90;;;19.20;nan;99968.91;4989891;28;20642;-65
2023/07/05 03:12:04;;;;;;;1.40;1.30;;;18.80;99.90;;;19.15;nan;99956.22;4989255;28;20650;-70
2023/07/05 03:14:31;;;;;;;0.77;0.77;;;18.80;99.90;;;19.14;nan;99961.69;4989207;28;20692;-65
2023/07/05 03:16:58;;;;;;;2.83;1.00;;;18.70;99.90;;;19.12;nan;99963.69;4988542;28;20662;-65
2023/07/05 03:19:25;;;;;;;0.80;0.80;;;18.70;99.90;;;19.07;nan;99969.53;4993238;28;20622;-66
2023/07/05 03:21:52;;;;;;;0.80;0.80;;;18.70;99.90;;;19.07;nan;99981.91;4989868;28;21162;-67
2023/07/05 03:24:19;;;;;;;0.83;0.80;;;18.70;99.90;;;19.13;nan;99978.53;4991538;28;20626;-66
2023/07/05 03:26:46;;;;;;;0.40;0.40;;;18.70;99.90;;;19.17;nan;99980.66;4988946;28;20673;-66
2023/07/05 03:29:13;;;;;;;0.83;0.83;;;18.80;99.90;;;19.22;nan;99977.47;5006800;28;20641;-66
2023/07/05 03:31:40;;;;;;;2.93;0.97;;;18.80;99.90;;;19.23;nan;99981.75;4989785;28;20662;-67
2023/07/05 03:34:07;;;;;;;0.73;0.73;;;18.80;99.90;;;19.25;nan;99993.00;5008733;28;20625;-65
2023/07/05 03:36:34;;;;;;;1.00;1.00;;;18.80;99.90;;;19.27;nan;100001.56;4992790;28;20665;-67
2023/07/05 03:39:05;;;;;;;1.43;0.80;;;18.80;99.90;;;19.27;nan;100001.56;5001483;28;20614;-68
2023/07/05 03:41:32;;;;;;;0.80;0.80;;;18.80;99.90;;;19.28;nan;99985.50;4994473;28;20635;-66
2023/07/05 03:44:00;;;;;;;0.60;0.60;;;18.90;99.90;;;19.27;nan;99986.50;4990047;28;20618;-67
2023/07/05 03:46:28;;;;;;;0.87;0.87;;;18.90;99.90;;;19.26;nan;99994.63;4986910;28;20665;-65
2023/07/05 03:48:55;;;;;;;0.57;0.57;;;18.90;99.90;;;19.20;nan;100000.63;4991461;28;20642;-67
2023/07/05 03:51:23;;;;;;;0.77;0.77;;;18.80;99.90;;;19.14;nan;99993.44;4989716;28;20712;-65
2023/07/05 03:53:55;;;;;;;1.27;1.10;;;18.80;99.90;;;19.12;nan;100001.50;4988102;28;20688;-66
2023/07/05 03:56:24;;;;;;;0.80;0.80;;;18.70;99.90;;;19.12;nan;100001.50;4990686;28;21027;-69
2023/07/05 03:58:51;;;;;;;3.27;1.50;;;18.70;99.90;;;19.06;nan;100009.38;4988319;28;20633;-65
2023/07/05 04:01:24;;;;;;;1.70;0.93;;;18.70;99.90;;;19.05;nan;100002.44;4987951;28;20646;-64
2023/07/05 04:03:58;;;;;;;1.17;1.07;;;18.60;99.90;;;19.02;nan;99990.38;4989870;28;20630;-67
2023/07/05 04:06:30;;;;;;;0.70;0.70;;;18.60;99.90;;;19.03;nan;99993.84;4988318;28;21148;-67
2023/07/05 04:08:58;;;;;;;1.30;1.20;;;18.60;99.90;;;19.00;nan;99999.50;4989199;28;20646;-66
2023/07/05 04:11:25;;;;;;;2.03;0.80;;;18.60;99.90;;;19.02;nan;100002.78;4989333;28;20661;-69
2023/07/05 04:13:54;;;;;;;3.17;0.87;;;18.60;99.90;;;19.01;nan;99995.88;4985191;28;20669;-66
2023/07/05 04:16:24;;;;;;;0.97;0.97;;;18.60;99.90;;;19.01;nan;99991.41;4981968;28;20658;-66
2023/07/05 04:18:55;;;;;;;1.17;0.80;;;18.60;99.90;;;19.02;nan;99994.84;4984215;28;20634;-66
2023/07/05 04:21:23;;;;;;;1.47;1.40;;;18.60;99.90;;;18.98;nan;99996.19;4982500;28;20657;-67
2023/07/05 04:23:50;;;;;;;0.70;0.70;;;18.60;99.90;;;19.01;nan;99991.41;4965398;28;21667;-66
2023/07/05 04:26:25;;;;;;;1.90;1.10;;;18.60;99.90;;;19.05;nan;99986.56;4986217;28;20673;-67
2023/07/05 04:28:52;;;;;;;0.93;0.93;;;18.70;99.90;;;19.08;nan;99992.31;4989150;28;20613;-66
2023/07/05 04:31:29;;;;;;;0.93;0.83;;;18.70;99.90;;;19.08;nan;99997.59;4991500;28;20717;-68
2023/07/05 04:33:58;;;;;;;1.43;1.30;;;18.70;99.90;;;19.09;nan;99987.84;4971235;28;20993;-66
2023/07/05 04:36:25;;;;;;;2.43;0.87;;;18.70;99.90;;;19.13;nan;99997.06;4975869;28;20670;-65
2023/07/05 04:38:56;;;;;;;1.10;1.10;;;18.70;99.90;;;19.18;nan;100003.47;4985281;28;21069;-66
2023/07/05 04:41:24;;;;;;;1.00;1.00;;;18.80;99.90;;;19.18;nan;100000.00;5009332;28;20671;-71
2023/07/05 04:43:51;;;;;;;0.77;0.77;;;18.80;99.90;;;19.18;nan;99994.69;5012876;28;20621;-65
2023/07/05 04:46:19;;;;;;;1.17;1.17;;;18.80;99.90;;;19.19;nan;99998.97;5008876;28;21022;-66
2023/07/05 04:48:46;;;;;;;1.47;1.20;;;18.80;99.90;;;19.22;nan;99994.16;4994461;28;20644;-68
2023/07/05 04:51:13;;;;;;;0.80;0.80;;;18.80;99.90;;;19.30;nan;99993.25;4987103;28;20682;-66
2023/07/05 04:53:40;;;;;;;0.67;0.67;;;18.80;99.90;;;19.35;nan;99988.28;4986507;28;22239;-69
2023/07/05 04:56:12;;;;;;;1.10;0.87;;;18.90;99.90;;;19.43;nan;99977.59;4987469;28;21025;-66
2023/07/05 04:58:40;;;;;;;1.23;0.97;;;19.00;99.90;;;19.50;nan;99982.97;4970780;28;20681;-70
2023/07/05 05:01:08;;;;;;;1.03;1.00;;;19.10;99.90;;;19.54;nan;99966.56;4988265;28;21241;-67
2023/07/05 05:03:35;;;;;;;1.00;1.00;;;19.10;99.90;;;19.56;nan;99975.13;4994364;28;20705;-66
2023/07/05 05:06:02;;;;;;;1.40;1.30;;;19.10;99.90;;;19.57;nan;99974.13;4979076;28;20650;-67
2023/07/05 05:08:30;;;;;;;1.60;1.50;;;19.20;99.90;;;19.63;nan;99991.94;5009239;28;20641;-67
2023/07/05 05:11:01;;;;;;;1.67;1.57;;;19.20;99.90;;;19.69;nan;100012.38;4978246;28;20670;-67
2023/07/05 05:13:33;;;;;;;1.60;1.50;;;19.30;99.90;;;19.74;nan;100031.13;4990028;28;20692;-67
2023/07/05 05:16:00;;;;;;;1.80;1.70;;;19.30;99.90;;;19.79;nan;100042.00;4974773;28;20606;-70
2023/07/05 05:18:31;;;;;;;1.23;1.17;;;19.30;99.90;;;19.84;nan;100052.88;4993829;28;21103;-65
2023/07/05 05:20:58;;;;;;;1.23;1.13;;;19.40;99.90;;;19.89;nan;100098.16;4992971;28;21275;-69
2023/07/05 05:23:26;;;;;;;0.57;0.57;;;19.50;99.90;;;19.83;nan;100092.75;4997743;28;20638;-67
2023/07/05 05:25:53;;;;;;;1.50;1.40;;;19.40;99.90;;;19.68;nan;100084.81;4990218;28;20648;-66
2023/07/05 05:28:20;;;;;;;0.57;0.57;;;19.30;99.90;;;19.61;nan;100097.16;4991605;28;20638;-70
2023/07/05 05:30:49;;;;;;;1.30;1.20;;;19.30;99.90;;;19.48;nan;100106.69;4996707;28;21402;-67
2023/07/05 05:33:17;;;;;;;2.50;1.20;;;19.10;99.90;;;19.35;nan;100102.03;4991421;28;20638;-66
2023/07/05 05:35:49;;;;;;;1.03;0.60;;;19.00;99.90;;;19.21;nan;100103.59;4987421;28;20645;-70
2023/07/05 05:38:18;;;;;;;0.60;0.60;;;18.90;99.90;;;19.05;nan;100108.19;4989164;28;20692;-67
2023/07/05 05:40:48;;;;;;;1.00;0.83;;;18.80;99.90;;;18.94;nan;100119.16;5009048;28;20633;-69
2023/07/05 05:43:16;;;;;;;1.17;0.83;;;18.60;99.90;;;18.83;nan;100124.84;4987085;28;20638;-65
2023/07/05 05:45:43;;;;;;;1.03;1.00;;;18.50;99.90;;;18.76;nan;100121.28;4994915;28;20634;-66
2023/07/05 05:48:10;;;;;;;1.87;1.00;;;18.40;99.90;;;18.76;nan;100118.66;4990654;28;20662;-66
2023/07/05 05:50:38;;;;;;;1.17;1.07;;;18.40;99.90;;;18.74;nan;100129.38;4989155;28;20639;-66
2023/07/05 05:53:05;;;;;;;3.07;0.90;;;18.40;99.90;;;18.75;nan;100127.56;4988937;28;20642;-68
2023/07/05 05:55:32;;;;;;;0.97;0.97;;;18.40;99.90;;;18.81;nan;100134.78;4990294;28;21204;-67
2023/07/05 05:57:59;;;;;;;1.27;1.20;;;18.40;99.90;;;18.85;nan;100133.44;4993619;28;20669;-67
2023/07/05 06:00:26;;;;;;;0.80;0.80;;;18.50;99.90;;;18.89;nan;100130.25;4992592;28;20629;-67
2023/07/05 06:02:53;;;;;;;1.37;1.27;;;18.50;99.90;;;18.95;nan;100141.97;4993505;28;20645;-66
2023/07/05 06:05:20;;;;;;;0.80;0.80;;;18.60;99.90;;;18.99;nan;100149.38;4991498;28;20675;-66
2023/07/05 06:07:47;;;;;;;2.20;1.80;;;18.60;99.90;;;19.05;nan;100147.84;4999720;28;20673;-69
2023/07/05 06:10:14;;;;;;;2.73;1.40;;;18.60;99.90;;;19.21;nan;100156.47;4990381;28;20644;-72
2023/07/05 06:12:41;;;;;;;1.30;1.00;;;18.80;99.90;;;19.52;nan;100166.19;4993536;28;20681;-70
2023/07/05 06:15:12;;;;;;;1.10;1.00;;;19.10;99.90;;;19.78;nan;100180.66;4997129;28;20638;-63
2023/07/05 06:17:40;;;;;;;2.87;1.60;;;19.30;99.90;;;20.02;nan;100183.06;4997534;28;21046;-67
2023/07/05 06:20:10;;;;;;;1.33;1.30;;;19.50;99.90;;;20.74;nan;100196.50;4997357;28;20626;-65
2023/07/05 06:22:38;;;;;;;2.57;1.67;;;20.10;99.90;;;21.60;nan;100202.50;4987535;28;20724;-66
2023/07/05 06:25:07;;;;;;;1.00;1.00;;;20.90;99.90;;;22.30;nan;100199.78;4984360;28;20646;-69
2023/07/05 06:27:34;;;;;;;1.20;1.17;;;21.70;99.90;;;23.11;nan;100206.03;4990873;28;20654;-67
2023/07/05 06:30:01;;;;;;;2.50;1.20;;;22.40;99.90;;;23.70;nan;100224.81;4989149;28;21230;-65
2023/07/05 06:32:29;;;;;;;1.73;1.63;;;23.10;99.90;;;24.10;nan;100226.47;4989720;28;20707;-68
2023/07/05 06:34:56;;;;;;;1.27;1.17;;;23.60;99.90;;;24.70;nan;100227.94;5007592;28;20638;-70
2023/07/05 06:37:23;;;;;;;3.77;1.30;;;24.20;99.90;;;24.46;nan;100244.63;4999408;28;20674;-65
2023/07/05 06:39:50;;;;;;;1.97;1.77;;;24.10;99.90;;;24.16;nan;100252.28;5000046;28;20634;-65
2023/07/05 06:42:17;;;;;;;1.83;1.33;;;23.80;99.90;;;24.38;nan;100245.66;4993939;28;21202;-66
2023/07/05 06:44:44;;;;;;;2.40;1.90;;;24.00;99.90;;;24.41;nan;100260.44;4978179;28;20646;-69
2023/07/05 06:47:11;;;;;;;1.43;1.33;;;24.00;99.90;;;24.89;nan;100276.94;4979277;28;20672;-66
2023/07/05 06:49:38;;;;;;;3.60;2.30;;;24.50;99.90;;;25.56;nan;100265.72;4996742;28;21012;-66
2023/07/05 06:52:08;;;;;;;1.33;1.27;;;25.10;99.90;;;26.29;nan;100269.47;4989809;28;20674;-71
2023/07/05 06:54:35;;;;;;;2.60;2.30;;;25.70;99.30;;;26.80;nan;100280.69;4986963;28;20644;-66
2023/07/05 06:57:02;;;;;;;2.30;1.83;;;26.30;98.50;;;26.33;nan;100282.19;4989975;28;20657;-69
2023/07/05 06:59:31;;;;;;;3.50;1.73;;;26.10;95.40;;;26.31;nan;100278.91;4990208;28;20642;-66
2023/07/05 07:01:58;;;;;;;4.63;2.10;;;26.00;95.20;;;26.71;nan;100290.00;4987776;28;20645;-65
2023/07/05 07:04:25;;;;;;;1.30;1.30;;;26.20;95.60;;;27.83;nan;100294.75;4996978;28;20644;-68
2023/07/05 07:06:52;;;;;;;2.77;1.63;;;27.20;94.60;;;27.94;nan;100296.63;4997815;28;20674;-65
2023/07/05 07:09:19;;;;;;;3.00;2.00;;;27.60;92.10;;;27.69;nan;100291.44;4989452;28;20692;-66
2023/07/05 07:11:46;;;;;;;1.30;1.23;;;27.40;92.30;;;27.60;nan;100304.34;5005856;28;20661;-66
2023/07/05 07:14:13;;;;;;;2.27;1.97;;;27.30;91.70;;;27.24;nan;100312.44;5000577;28;20642;-67
2023/07/05 07:16:40;;;;;;;1.87;1.77;;;26.90;91.20;;;27.28;nan;100305.59;4994150;28;21343;-67
2023/07/05 07:19:08;;;;;;;1.70;1.60;;;26.90;91.30;;;27.50;nan;100317.50;4987725;28;20685;-65
2023/07/05 07:21:35;;;;;;;1.60;1.50;;;27.10;91.30;;;27.14;nan;100320.22;4994287;28;20614;-69
2023/07/05 07:24:02;;;;;;;1.90;1.50;;;26.90;90.50;;;26.48;nan;100322.78;4999931;28;20653;-66
2023/07/05 07:26:29;;;;;;;2.17;1.70;;;26.30;90.80;;;25.77;nan;100311.63;4989684;28;20674;-69
2023/07/05 07:28:56;;;;;;;1.87;1.77;;;25.60;91.20;;;25.21;nan;100326.72;4989045;28;21021;-66
2023/07/05 07:31:27;;;;;;;2.00;1.63;;;25.00;91.60;;;24.88;nan;100326.00;4989157;28;20626;-66
2023/07/05 07:33:55;;;;;;;1.80;1.70;;;24.70;91.80;;;25.26;nan;100337.56;4979006;28;20614;-67
2023/07/05 07:36:25;;;;;;;1.60;1.50;;;24.90;91.70;;;25.69;nan;100332.44;4972891;28;20662;-67
2023/07/05 07:38:53;;;;;;;2.70;1.77;;;25.30;90.90;;;26.12;nan;100339.56;4971375;28;21126;-66
2023/07/05 07:41:30;;;;;;;1.67;1.57;;;25.70;90.50;;;26.44;nan;100339.50;4988783;28;20637;-65
2023/07/05 07:44:05;;;;;;;2.10;1.50;;;26.00;88.50;;;27.26;nan;100336.38;4990327;28;21009;-66
2023/07/05 07:46:34;;;;;;;1.40;1.30;;;26.70;88.10;;;28.20;nan;100345.31;4970982;28;20666;-66
2023/07/05 07:49:03;;;;;;;1.50;1.40;;;27.60;87.80;;;28.76;nan;100350.13;4985099;28;20638;-68
2023/07/05 07:51:34;;;;;;;1.37;1.37;;;28.30;84.30;;;29.21;nan;100358.38;4984207;28;20614;-66
2023/07/05 07:54:14;;;;;;;3.63;1.37;;;28.80;83.40;;;29.06;nan;100361.53;4970448;28;21196;-70
2023/07/05 07:56:46;;;;;;;2.10;1.43;;;28.80;77.50;;;28.92;nan;100360.16;4989734;28;20685;-67
2023/07/05 07:59:16;;;;;;;1.93;1.60;;;28.60;77.40;;;28.79;nan;100357.72;4991789;28;20638;-69
2023/07/05 08:01:44;;;;;;;3.30;2.30;;;28.50;76.80;;;28.75;nan;100351.19;4960919;28;20634;-65
2023/07/05 08:04:13;;;;;;;3.13;2.37;;;28.40;76.60;;;28.77;nan;100364.38;4990943;28;20638;-66
2023/07/05 08:06:58;;;;;;;1.70;1.57;;;28.40;76.20;;;27.86;nan;100361.31;4993860;28;20654;-70
2023/07/05 08:09:29;;;;;;;3.10;2.00;;;27.90;75.10;;;27.63;nan;100370.91;4992202;28;20671;-70
2023/07/05 08:11:56;;;;;;;1.87;1.20;;;27.40;76.00;;;27.35;nan;100365.31;4993502;28;20666;-70
2023/07/05 08:14:24;;;;;;;2.40;2.20;;;27.10;75.80;;;27.34;nan;100371.69;4982374;28;20640;-70
2023/07/05 08:16:51;;;;;;;1.40;1.30;;;27.10;75.40;;;27.28;nan;100364.53;4998636;28;20646;-70
2023/07/05 08:19:20;;;;;;;2.07;1.50;;;27.10;76.00;;;27.10;nan;100364.56;5006113;28;20642;-70
2023/07/05 08:21:48;;;;;;;1.87;1.70;;;26.90;76.10;;;26.85;nan;100369.97;4976395;28;20602;-71
2023/07/05 08:24:16;;;;;;;2.07;1.80;;;26.60;77.40;;;27.36;nan;100375.00;4984632;28;20661;-71
2023/07/05 08:26:54;;;;;;;1.43;1.33;;;27.00;76.20;;;28.47;nan;100379.75;4993648;28;20662;-70
2023/07/05 08:29:21;;;;;;;1.70;1.60;;;27.90;74.60;;;29.27;nan;100386.97;4990794;28;20642;-69
2023/07/05 08:31:49;;;;;;;2.70;1.73;;;28.90;72.40;;;29.37;nan;100389.06;4994299;28;20656;-70
2023/07/05 08:34:17;;;;;;;1.70;1.60;;;29.10;70.20;;;29.05;nan;100394.81;4976052;28;20637;-69
2023/07/05 08:36:46;;;;;;;1.50;1.40;;;28.80;70.60;;;29.52;nan;100403.59;4989874;28;20670;-69
2023/07/05 08:39:13;;;;;;;2.13;1.93;;;29.20;70.30;;;29.14;nan;100400.63;4992565;28;21220;-68
2023/07/05 08:41:43;;;;;;;2.17;1.87;;;29.10;67.90;;;29.30;nan;100410.69;4991386;28;20629;-68
2023/07/05 08:44:48;;;;;;;1.13;1.13;;;29.00;67.50;;;29.40;nan;100410.06;4991343;28;20638;-70
2023/07/05 08:47:44;;;;;;;1.57;1.30;;;29.00;67.10;;;29.50;nan;100421.84;4996077;28;20668;-66
2023/07/05 08:50:27;;;;;;;1.03;1.03;;;29.10;66.90;;;28.90;nan;100415.97;4987362;28;20646;-64
2023/07/05 08:53:14;;;;;;;1.47;1.37;;;28.60;67.00;;;29.00;nan;100418.06;4972702;28;21073;-69
2023/07/05 08:55:58;;;;;;;2.20;1.50;;;28.40;66.70;;;28.59;nan;100412.81;4992497;28;20668;-66
2023/07/05 08:58:47;;;;;;;1.90;1.80;;;28.10;66.60;;;27.97;nan;100415.00;4973851;28;20711;-66
2023/07/05 09:01:40;;;;;;;6.53;3.93;;;27.60;67.40;;;27.07;nan;100415.88;5001178;28;20630;-67
2023/07/05 09:04:25;;;;;;;10.57;7.40;;;26.80;69.10;;;26.50;nan;100413.50;4994909;28;20650;-66
2023/07/05 09:07:09;;;;;;;8.83;5.43;;;26.20;70.00;;;25.86;nan;100417.22;4975037;28;20665;-64
2023/07/05 09:09:51;;;;;;;1.50;1.40;;;25.60;70.10;;;25.17;nan;100424.28;4989475;28;20649;-65
2023/07/05 09:12:23;;;;;;;2.07;1.40;;;25.00;71.40;;;24.73;nan;100424.94;4990572;28;20653;-65
2023/07/05 09:15:18;;;;;;;2.30;1.27;;;24.40;72.90;;;24.29;nan;100416.75;4969034;28;20618;-65
2023/07/05 09:18:00;;;;;;;2.10;1.30;;;24.00;75.10;;;24.36;nan;100413.03;4992520;28;20657;-63
2023/07/05 09:21:05;;;;;;;1.90;1.70;;;23.90;75.60;;;24.51;nan;100413.66;4991697;28;20640;-66
2023/07/05 09:23:48;;;;;;;0.80;0.80;;;24.10;75.20;;;24.53;nan;100414.28;4980023;28;20645;-68
2023/07/05 09:26:30;;;;;;;5.13;1.80;;;24.20;72.60;;;24.61;nan;100431.94;4987762;28;20673;-67
2023/07/05 09:29:14;;;;;;;3.08;1.50;;;24.20;73.10;;;24.69;nan;100437.06;4985396;28;20764;-67
2023/07/05 09:31:43;;;;;;;0.83;0.83;;;24.20;73.00;;;24.48;nan;100421.25;4970603;28;20204;-68
2023/07/05 09:34:18;;;;;;;1.17;1.07;;;24.10;73.60;;;24.41;nan;100431.09;4995326;28;20620;-66
2023/07/05 09:36:47;;;;;;;2.77;1.43;;;24.00;73.70;;;24.43;nan;100423.72;4997106;28;21259;-65
2023/07/05 09:39:29;;;;;;;1.43;1.30;;;24.00;73.10;;;24.27;nan;100438.28;4974460;28;20617;-66
2023/07/05 09:42:00;;;;;;;0.97;0.97;;;23.90;72.50;;;24.23;nan;100444.22;4997154;28;20613;-66
2023/07/05 09:44:27;;;;;;;1.60;1.47;;;23.90;72.40;;;24.26;nan;100449.13;4991217;28;21172;-66
2023/07/05 09:46:54;;;;;;;1.20;1.10;;;23.80;73.60;;;24.36;nan;100462.91;4988282;28;20666;-68
2023/07/05 09:49:22;;;;;;;1.30;1.03;;;23.90;73.90;;;24.29;nan;100448.72;4993331;28;20635;-69
2023/07/05 09:51:49;;;;;;;1.30;0.90;;;23.90;74.20;;;24.18;nan;100452.81;4990200;28;20619;-69
2023/07/05 09:54:29;;;;;;;1.50;1.37;;;23.80;74.10;;;24.20;nan;100460.59;4984250;28;20642;-69
2023/07/05 09:57:06;;;;;;;1.77;1.03;;;23.80;74.90;;;24.25;nan;100461.66;4991275;28;21010;-70
2023/07/05 09:59:34;;;;;;;1.47;1.37;;;23.80;74.20;;;24.65;nan;100459.84;5001316;28;21759;-69
2023/07/05 10:02:12;;;;;;;2.73;1.40;;;24.30;73.30;;;25.16;nan;100460.84;4996586;28;20676;-69
2023/07/05 10:04:58;;;;;;;1.07;1.07;;;24.80;71.20;;;25.75;nan;100466.00;4981375;28;20630;-69
2023/07/05 10:07:32;;;;;;;1.43;1.40;;;25.50;68.70;;;26.43;nan;100471.63;4983146;28;20657;-70
2023/07/05 10:10:10;;;;;;;1.30;1.20;;;26.10;68.10;;;26.36;nan;100471.66;4990488;28;20638;-70
2023/07/05 10:12:42;;;;;;;0.87;0.87;;;26.10;67.60;;;25.79;nan;100477.13;4990198;28;21260;-70
2023/07/05 10:15:23;;;;;;;0.93;0.93;;;25.60;67.30;;;25.30;nan;100472.28;4989711;28;20626;-69
2023/07/05 10:17:53;;;;;;;2.70;1.27;;;25.00;68.40;;;24.96;nan;100480.59;4970916;28;20662;-70
2023/07/05 10:20:32;;;;;;;1.70;1.30;;;24.60;69.10;;;24.76;nan;100474.44;4992014;28;20601;-69
2023/07/05 10:23:04;;;;;;;1.50;1.40;;;24.40;69.90;;;24.54;nan;100479.94;4997528;28;20690;-69
2023/07/05 10:25:35;;;;;;;0.83;0.83;;;24.20;71.10;;;24.36;nan;100478.91;4988274;28;20649;-69
2023/07/05 10:28:05;;;;;;;0.90;0.90;;;24.00;70.70;;;24.15;nan;100485.19;4978247;28;20669;-69
2023/07/05 10:30:48;;;;;;;0.40;0.40;;;23.80;70.90;;;24.02;nan;100479.00;4991010;28;20642;-66
2023/07/05 10:33:24;;;;;;;9.10;4.50;;;23.70;70.60;;;24.01;nan;100494.16;4984363;28;20677;-68
2023/07/05 10:36:05;;;;;;;2.77;2.53;;;23.60;71.10;;;24.01;nan;100470.19;4998572;28;20618;-69
2023/07/05 10:38:47;;;;;;;0.90;0.90;;;23.60;72.30;;;24.11;nan;100473.31;4990281;28;20646;-66
2023/07/05 10:41:20;;;;;;;1.00;0.83;;;23.60;72.50;;;24.16;nan;100481.53;4975858;28;20618;-68
2023/07/05 10:44:04;;;;;;;0.60;0.53;;;23.70;71.90;;;24.10;nan;100477.00;4991223;28;20634;-70
2023/07/05 10:46:36;;;;;;;0.87;0.87;;;23.70;72.20;;;23.97;nan;100471.59;4979161;28;20736;-69